sensor_id;sensor_type;location;lat;lon;timestamp;temperature;humidity
29203;DHT22;16245;51.170;4.884;2022-08-30T00:01:09;18.50;99.90
29203;DHT22;16245;51.170;4.884;2022-08-30T00:03:43;18.50;99.90
29203;DHT22;16245;51.170;4.884;2022-08-30T00:06:14;18.60;99.90
29203;DHT22;16245;51.170;4.884;2022-08-30T00:08:41;18.60;99.90
29203;DHT22;16245;51.170;4.884;2022-08-30T00:11:09;18.60;99.90
29203;DHT22;16245;51.170;4.884;2022-08-30T00:13:40;18.50;99.90
29203;DHT22;16245;51.170;4.884;2022-08-30T00:16:06;18.50;99.90
29203;DHT22;16245;51.170;4.884;2022-08-30T00:18:33;18.50;99.90
29203;DHT22;16245;51.170;4.884;2022-08-30T00:21:00;18.40;99.90
29203;DHT22;16245;51.170;4.884;2022-08-30T00:23:26;18.40;99.90
29203;DHT22;16245;51.170;4.884;2022-08-30T00:25:52;18.40;99.90
29203;DHT22;16245;51.170;4.884;2022-08-30T00:28:17;18.40;99.90
29203;DHT22;16245;51.170;4.884;2022-08-30T00:30:45;18.40;99.90
29203;DHT22;16245;51.170;4.884;2022-08-30T00:33:12;18.30;99.90
29203;DHT22;16245;51.170;4.884;2022-08-30T00:35:39;18.30;99.90
29203;DHT22;16245;51.170;4.884;2022-08-30T00:38:06;18.20;99.90
29203;DHT22;16245;51.170;4.884;2022-08-30T00:40:32;18.10;99.90
29203;DHT22;16245;51.170;4.884;2022-08-30T00:43:01;18.10;99.90
29203;DHT22;16245;51.170;4.884;2022-08-30T00:45:30;18.20;99.90
29203;DHT22;16245;51.170;4.884;2022-08-30T00:47:56;18.20;99.90
29203;DHT22;16245;51.170;4.884;2022-08-30T00:50:27;18.20;99.90
29203;DHT22;16245;51.170;4.884;2022-08-30T00:52:57;18.20;99.90
29203;DHT22;16245;51.170;4.884;2022-08-30T00:55:24;18.20;99.90
29203;DHT22;16245;51.170;4.884;2022-08-30T00:57:55;18.10;99.90
29203;DHT22;16245;51.170;4.884;2022-08-30T01:00:22;18.20;99.90
29203;DHT22;16245;51.170;4.884;2022-08-30T01:02:48;18.20;99.90
29203;DHT22;16245;51.170;4.884;2022-08-30T01:05:15;18.30;99.90
29203;DHT22;16245;51.170;4.884;2022-08-30T01:07:41;18.30;99.90
29203;DHT22;16245;51.170;4.884;2022-08-30T01:10:09;18.30;99.90
29203;DHT22;16245;51.170;4.884;2022-08-30T01:12:36;18.40;99.90
29203;DHT22;16245;51.170;4.884;2022-08-30T01:15:03;18.40;99.90
29203;DHT22;16245;51.170;4.884;2022-08-30T01:17:29;18.40;99.90
29203;DHT22;16245;51.170;4.884;2022-08-30T01:19:59;18.40;99.90
29203;DHT22;16245;51.170;4.884;2022-08-30T01:25:10;18.40;99.90
29203;DHT22;16245;51.170;4.884;2022-08-30T01:27:43;18.30;99.90
29203;DHT22;16245;51.170;4.884;2022-08-30T01:30:11;18.30;99.90
29203;DHT22;16245;51.170;4.884;2022-08-30T01:32:43;18.20;99.90
29203;DHT22;16245;51.170;4.884;2022-08-30T01:35:12;18.20;99.90
29203;DHT22;16245;51.170;4.884;2022-08-30T01:37:38;18.20;99.90
29203;DHT22;16245;51.170;4.884;2022-08-30T01:40:05;18.10;99.90
29203;DHT22;16245;51.170;4.884;2022-08-30T01:42:31;18.10;99.90
29203;DHT22;16245;51.170;4.884;2022-08-30T01:44:57;18.10;99.90
29203;DHT22;16245;51.170;4.884;2022-08-30T01:47:23;18.00;99.90
29203;DHT22;16245;51.170;4.884;2022-08-30T01:49:49;17.90;99.90
29203;DHT22;16245;51.170;4.884;2022-08-30T01:52:18;17.90;99.90
29203;DHT22;16245;51.170;4.884;2022-08-30T01:54:45;17.90;99.90
29203;DHT22;16245;51.170;4.884;2022-08-30T01:57:13;18.00;99.90
29203;DHT22;16245;51.170;4.884;2022-08-30T01:59:40;18.00;99.90
29203;DHT22;16245;51.170;4.884;2022-08-30T02:02:08;18.00;99.90
29203;DHT22;16245;51.170;4.884;2022-08-30T02:04:34;18.00;99.90
29203;DHT22;16245;51.170;4.884;2022-08-30T02:07:01;17.90;99.90
29203;DHT22;16245;51.170;4.884;2022-08-30T02:09:27;18.00;99.90
29203;DHT22;16245;51.170;4.884;2022-08-30T02:11:53;17.90;99.90
29203;DHT22;16245;51.170;4.884;2022-08-30T02:14:19;17.90;99.90
29203;DHT22;16245;51.170;4.884;2022-08-30T02:16:45;17.80;99.90
29203;DHT22;16245;51.170;4.884;2022-08-30T02:19:13;17.80;99.90
29203;DHT22;16245;51.170;4.884;2022-08-30T02:21:38;17.80;99.90
29203;DHT22;16245;51.170;4.884;2022-08-30T02:24:04;17.90;99.90
29203;DHT22;16245;51.170;4.884;2022-08-30T02:26:30;17.90;99.90
29203;DHT22;16245;51.170;4.884;2022-08-30T02:28:57;18.00;99.90
29203;DHT22;16245;51.170;4.884;2022-08-30T02:31:23;17.90;99.90
29203;DHT22;16245;51.170;4.884;2022-08-30T02:33:51;17.90;99.90
29203;DHT22;16245;51.170;4.884;2022-08-30T02:36:18;17.90;99.90
29203;DHT22;16245;51.170;4.884;2022-08-30T02:38:45;17.90;99.90
29203;DHT22;16245;51.170;4.884;2022-08-30T02:41:11;17.90;99.90
29203;DHT22;16245;51.170;4.884;2022-08-30T02:43:36;17.80;99.90
29203;DHT22;16245;51.170;4.884;2022-08-30T02:46:02;17.70;99.90
29203;DHT22;16245;51.170;4.884;2022-08-30T02:48:28;17.70;99.90
29203;DHT22;16245;51.170;4.884;2022-08-30T02:50:53;17.70;99.90
29203;DHT22;16245;51.170;4.884;2022-08-30T02:53:20;17.70;99.90
29203;DHT22;16245;51.170;4.884;2022-08-30T02:55:47;17.60;99.90
29203;DHT22;16245;51.170;4.884;2022-08-30T02:58:13;17.70;99.90
29203;DHT22;16245;51.170;4.884;2022-08-30T03:00:40;17.70;99.90
29203;DHT22;16245;51.170;4.884;2022-08-30T03:03:06;17.70;99.90
29203;DHT22;16245;51.170;4.884;2022-08-30T03:05:32;17.70;99.90
29203;DHT22;16245;51.170;4.884;2022-08-30T03:07:59;17.70;99.90
29203;DHT22;16245;51.170;4.884;2022-08-30T03:10:26;17.70;99.90
29203;DHT22;16245;51.170;4.884;2022-08-30T03:12:55;17.60;99.90
29203;DHT22;16245;51.170;4.884;2022-08-30T03:15:21;17.60;99.90
29203;DHT22;16245;51.170;4.884;2022-08-30T03:17:51;17.60;99.90
29203;DHT22;16245;51.170;4.884;2022-08-30T03:20:17;17.60;99.90
29203;DHT22;16245;51.170;4.884;2022-08-30T03:22:43;17.60;99.90
29203;DHT22;16245;51.170;4.884;2022-08-30T03:25:09;17.60;99.90
29203;DHT22;16245;51.170;4.884;2022-08-30T03:27:35;17.70;99.90
29203;DHT22;16245;51.170;4.884;2022-08-30T03:30:00;17.60;99.90
29203;DHT22;16245;51.170;4.884;2022-08-30T03:32:26;17.60;99.90
29203;DHT22;16245;51.170;4.884;2022-08-30T03:34:52;17.70;99.90
29203;DHT22;16245;51.170;4.884;2022-08-30T03:37:18;17.70;99.90
29203;DHT22;16245;51.170;4.884;2022-08-30T03:39:44;17.70;99.90
29203;DHT22;16245;51.170;4.884;2022-08-30T03:42:10;17.70;99.90
29203;DHT22;16245;51.170;4.884;2022-08-30T03:44:36;17.70;99.90
29203;DHT22;16245;51.170;4.884;2022-08-30T03:47:03;17.70;99.90
29203;DHT22;16245;51.170;4.884;2022-08-30T03:49:29;17.80;99.90
29203;DHT22;16245;51.170;4.884;2022-08-30T03:51:56;17.70;99.90
29203;DHT22;16245;51.170;4.884;2022-08-30T03:54:21;17.80;99.90
29203;DHT22;16245;51.170;4.884;2022-08-30T03:56:47;17.70;99.90
29203;DHT22;16245;51.170;4.884;2022-08-30T03:59:13;17.70;99.90
29203;DHT22;16245;51.170;4.884;2022-08-30T04:01:39;17.60;99.90
29203;DHT22;16245;51.170;4.884;2022-08-30T04:04:06;17.60;99.90
29203;DHT22;16245;51.170;4.884;2022-08-30T04:06:33;17.60;99.90
29203;DHT22;16245;51.170;4.884;2022-08-30T04:08:58;17.50;99.90
29203;DHT22;16245;51.170;4.884;2022-08-30T04:11:24;17.50;99.90
29203;DHT22;16245;51.170;4.884;2022-08-30T04:13:49;17.50;99.90
29203;DHT22;16245;51.170;4.884;2022-08-30T04:16:17;17.50;99.90
29203;DHT22;16245;51.170;4.884;2022-08-30T04:18:43;17.40;99.90
29203;DHT22;16245;51.170;4.884;2022-08-30T04:21:09;17.40;99.90
29203;DHT22;16245;51.170;4.884;2022-08-30T04:23:35;17.50;99.90
29203;DHT22;16245;51.170;4.884;2022-08-30T04:26:00;17.40;99.90
29203;DHT22;16245;51.170;4.884;2022-08-30T04:28:27;17.40;99.90
29203;DHT22;16245;51.170;4.884;2022-08-30T04:30:52;17.50;99.90
29203;DHT22;16245;51.170;4.884;2022-08-30T04:33:18;17.50;99.90
29203;DHT22;16245;51.170;4.884;2022-08-30T04:35:46;17.40;99.90
29203;DHT22;16245;51.170;4.884;2022-08-30T04:38:12;17.50;99.90
29203;DHT22;16245;51.170;4.884;2022-08-30T04:40:45;17.50;99.90
29203;DHT22;16245;51.170;4.884;2022-08-30T04:43:13;17.50;99.90
29203;DHT22;16245;51.170;4.884;2022-08-30T04:45:39;17.50;99.90
29203;DHT22;16245;51.170;4.884;2022-08-30T04:48:06;17.60;99.90
29203;DHT22;16245;51.170;4.884;2022-08-30T04:50:32;17.50;99.90
29203;DHT22;16245;51.170;4.884;2022-08-30T04:52:57;17.50;99.90
29203;DHT22;16245;51.170;4.884;2022-08-30T04:55:24;17.50;99.90
29203;DHT22;16245;51.170;4.884;2022-08-30T04:57:50;17.40;99.90
29203;DHT22;16245;51.170;4.884;2022-08-30T05:00:17;17.50;99.90
29203;DHT22;16245;51.170;4.884;2022-08-30T05:02:45;17.60;99.90
29203;DHT22;16245;51.170;4.884;2022-08-30T05:05:11;17.50;99.90
29203;DHT22;16245;51.170;4.884;2022-08-30T05:08:12;17.50;99.90
29203;DHT22;16245;51.170;4.884;2022-08-30T05:10:42;17.50;99.90
29203;DHT22;16245;51.170;4.884;2022-08-30T05:13:10;17.50;99.90
29203;DHT22;16245;51.170;4.884;2022-08-30T05:15:36;17.50;99.90
29203;DHT22;16245;51.170;4.884;2022-08-30T05:18:04;17.40;99.90
29203;DHT22;16245;51.170;4.884;2022-08-30T05:20:32;17.50;99.90
29203;DHT22;16245;51.170;4.884;2022-08-30T05:22:58;17.60;99.90
29203;DHT22;16245;51.170;4.884;2022-08-30T05:25:26;17.60;99.90
29203;DHT22;16245;51.170;4.884;2022-08-30T05:27:53;17.70;99.90
29203;DHT22;16245;51.170;4.884;2022-08-30T05:30:19;17.70;99.90
29203;DHT22;16245;51.170;4.884;2022-08-30T05:32:45;17.70;99.90
29203;DHT22;16245;51.170;4.884;2022-08-30T05:35:12;17.80;99.90
29203;DHT22;16245;51.170;4.884;2022-08-30T05:37:38;17.80;99.90
29203;DHT22;16245;51.170;4.884;2022-08-30T05:40:05;17.90;99.90
29203;DHT22;16245;51.170;4.884;2022-08-30T05:42:31;18.00;99.90
29203;DHT22;16245;51.170;4.884;2022-08-30T05:44:58;18.10;99.90
29203;DHT22;16245;51.170;4.884;2022-08-30T05:47:23;18.10;99.90
29203;DHT22;16245;51.170;4.884;2022-08-30T05:49:49;18.30;99.90
29203;DHT22;16245;51.170;4.884;2022-08-30T05:52:15;18.40;99.90
29203;DHT22;16245;51.170;4.884;2022-08-30T05:54:50;18.50;99.90
29203;DHT22;16245;51.170;4.884;2022-08-30T05:57:16;18.40;99.90
29203;DHT22;16245;51.170;4.884;2022-08-30T05:59:42;18.30;99.90
29203;DHT22;16245;51.170;4.884;2022-08-30T06:02:08;18.30;99.90
29203;DHT22;16245;51.170;4.884;2022-08-30T06:04:34;18.40;99.90
29203;DHT22;16245;51.170;4.884;2022-08-30T06:07:03;18.30;99.90
29203;DHT22;16245;51.170;4.884;2022-08-30T06:09:29;18.30;99.90
29203;DHT22;16245;51.170;4.884;2022-08-30T06:11:55;18.30;99.90
29203;DHT22;16245;51.170;4.884;2022-08-30T06:14:22;18.40;99.90
29203;DHT22;16245;51.170;4.884;2022-08-30T06:16:48;18.40;99.90
29203;DHT22;16245;51.170;4.884;2022-08-30T06:19:16;18.40;99.90
29203;DHT22;16245;51.170;4.884;2022-08-30T06:21:45;18.40;99.90
29203;DHT22;16245;51.170;4.884;2022-08-30T06:24:12;18.60;99.90
29203;DHT22;16245;51.170;4.884;2022-08-30T06:26:43;18.60;99.90
29203;DHT22;16245;51.170;4.884;2022-08-30T06:29:10;18.60;99.90
29203;DHT22;16245;51.170;4.884;2022-08-30T06:31:36;18.70;99.90
29203;DHT22;16245;51.170;4.884;2022-08-30T06:34:03;18.80;99.90
29203;DHT22;16245;51.170;4.884;2022-08-30T06:36:29;18.70;99.90
29203;DHT22;16245;51.170;4.884;2022-08-30T06:38:56;18.90;99.90
29203;DHT22;16245;51.170;4.884;2022-08-30T06:41:25;18.90;99.90
29203;DHT22;16245;51.170;4.884;2022-08-30T06:43:51;19.00;99.90
29203;DHT22;16245;51.170;4.884;2022-08-30T06:46:20;19.10;99.90
29203;DHT22;16245;51.170;4.884;2022-08-30T06:48:46;19.10;99.90
29203;DHT22;16245;51.170;4.884;2022-08-30T06:51:12;19.20;99.90
29203;DHT22;16245;51.170;4.884;2022-08-30T06:53:37;19.40;99.90
29203;DHT22;16245;51.170;4.884;2022-08-30T06:56:08;19.40;99.90
29203;DHT22;16245;51.170;4.884;2022-08-30T06:58:35;19.50;99.90
29203;DHT22;16245;51.170;4.884;2022-08-30T07:01:02;19.70;99.90
29203;DHT22;16245;51.170;4.884;2022-08-30T07:03:27;19.90;99.90
29203;DHT22;16245;51.170;4.884;2022-08-30T07:05:55;19.90;99.90
29203;DHT22;16245;51.170;4.884;2022-08-30T07:08:21;20.00;99.90
29203;DHT22;16245;51.170;4.884;2022-08-30T07:10:48;20.10;99.90
29203;DHT22;16245;51.170;4.884;2022-08-30T07:13:14;20.10;99.90
29203;DHT22;16245;51.170;4.884;2022-08-30T07:15:42;20.20;99.90
29203;DHT22;16245;51.170;4.884;2022-08-30T07:18:10;20.30;99.90
29203;DHT22;16245;51.170;4.884;2022-08-30T07:20:54;20.40;99.90
29203;DHT22;16245;51.170;4.884;2022-08-30T07:23:20;20.60;99.90
29203;DHT22;16245;51.170;4.884;2022-08-30T07:25:46;20.70;99.90
29203;DHT22;16245;51.170;4.884;2022-08-30T07:28:12;20.90;99.90
29203;DHT22;16245;51.170;4.884;2022-08-30T07:30:39;21.10;99.90
29203;DHT22;16245;51.170;4.884;2022-08-30T07:33:05;21.20;99.90
29203;DHT22;16245;51.170;4.884;2022-08-30T07:35:31;21.30;99.90
29203;DHT22;16245;51.170;4.884;2022-08-30T07:37:57;21.40;99.90
29203;DHT22;16245;51.170;4.884;2022-08-30T07:40:23;21.90;99.90
29203;DHT22;16245;51.170;4.884;2022-08-30T07:42:49;22.40;99.90
29203;DHT22;16245;51.170;4.884;2022-08-30T07:45:15;22.70;99.90
29203;DHT22;16245;51.170;4.884;2022-08-30T07:47:41;23.00;99.90
29203;DHT22;16245;51.170;4.884;2022-08-30T07:50:07;23.20;99.90
29203;DHT22;16245;51.170;4.884;2022-08-30T07:52:33;23.50;99.90
29203;DHT22;16245;51.170;4.884;2022-08-30T07:54:59;23.80;99.90
29203;DHT22;16245;51.170;4.884;2022-08-30T07:57:26;24.30;99.90
29203;DHT22;16245;51.170;4.884;2022-08-30T07:59:52;24.40;99.90
29203;DHT22;16245;51.170;4.884;2022-08-30T08:02:18;24.50;99.90
29203;DHT22;16245;51.170;4.884;2022-08-30T08:04:44;24.30;99.90
29203;DHT22;16245;51.170;4.884;2022-08-30T08:07:11;24.70;99.90
29203;DHT22;16245;51.170;4.884;2022-08-30T08:09:37;25.00;99.90
29203;DHT22;16245;51.170;4.884;2022-08-30T08:12:04;25.00;99.90
29203;DHT22;16245;51.170;4.884;2022-08-30T08:14:31;25.10;99.90
29203;DHT22;16245;51.170;4.884;2022-08-30T08:16:57;25.70;98.90
29203;DHT22;16245;51.170;4.884;2022-08-30T08:19:22;26.00;97.80
29203;DHT22;16245;51.170;4.884;2022-08-30T08:21:48;26.10;98.10
29203;DHT22;16245;51.170;4.884;2022-08-30T08:24:14;26.20;97.00
29203;DHT22;16245;51.170;4.884;2022-08-30T08:26:41;26.30;96.70
29203;DHT22;16245;51.170;4.884;2022-08-30T08:29:07;26.40;96.40
29203;DHT22;16245;51.170;4.884;2022-08-30T08:31:35;26.50;96.30
29203;DHT22;16245;51.170;4.884;2022-08-30T08:34:04;26.70;95.50
29203;DHT22;16245;51.170;4.884;2022-08-30T08:36:30;26.80;95.40
29203;DHT22;16245;51.170;4.884;2022-08-30T08:38:57;27.00;94.40
29203;DHT22;16245;51.170;4.884;2022-08-30T08:41:53;27.20;93.90
29203;DHT22;16245;51.170;4.884;2022-08-30T08:47:19;27.30;93.30
29203;DHT22;16245;51.170;4.884;2022-08-30T08:49:51;27.60;92.90
29203;DHT22;16245;51.170;4.884;2022-08-30T08:52:33;28.10;93.20
29203;DHT22;16245;51.170;4.884;2022-08-30T08:55:20;28.20;92.20
29203;DHT22;16245;51.170;4.884;2022-08-30T08:57:47;28.10;93.60
29203;DHT22;16245;51.170;4.884;2022-08-30T09:00:13;28.40;91.70
29203;DHT22;16245;51.170;4.884;2022-08-30T09:02:45;28.60;91.50
29203;DHT22;16245;51.170;4.884;2022-08-30T09:05:15;28.70;91.50
29203;DHT22;16245;51.170;4.884;2022-08-30T09:07:49;28.90;91.00
29203;DHT22;16245;51.170;4.884;2022-08-30T09:10:16;29.20;90.40
29203;DHT22;16245;51.170;4.884;2022-08-30T09:12:42;29.20;89.10
29203;DHT22;16245;51.170;4.884;2022-08-30T09:15:16;29.00;89.80
29203;DHT22;16245;51.170;4.884;2022-08-30T09:17:59;29.00;90.00
29203;DHT22;16245;51.170;4.884;2022-08-30T09:20:32;29.30;89.30
29203;DHT22;16245;51.170;4.884;2022-08-30T09:23:09;29.20;88.80
29203;DHT22;16245;51.170;4.884;2022-08-30T09:25:36;28.60;89.20
29203;DHT22;16245;51.170;4.884;2022-08-30T09:28:12;28.90;90.10
29203;DHT22;16245;51.170;4.884;2022-08-30T09:31:06;29.60;88.90
29203;DHT22;16245;51.170;4.884;2022-08-30T09:33:32;29.40;88.20
29203;DHT22;16245;51.170;4.884;2022-08-30T09:36:26;29.30;88.30
29203;DHT22;16245;51.170;4.884;2022-08-30T09:41:47;29.90;85.90
29203;DHT22;16245;51.170;4.884;2022-08-30T09:44:18;30.60;84.30
29203;DHT22;16245;51.170;4.884;2022-08-30T09:46:50;30.70;84.20
29203;DHT22;16245;51.170;4.884;2022-08-30T10:00:22;31.10;82.90
29203;DHT22;16245;51.170;4.884;2022-08-30T10:03:13;31.30;80.50
29203;DHT22;16245;51.170;4.884;2022-08-30T10:05:51;31.40;79.90
29203;DHT22;16245;51.170;4.884;2022-08-30T10:11:35;31.50;81.20
29203;DHT22;16245;51.170;4.884;2022-08-30T10:19:19;30.80;78.60
29203;DHT22;16245;51.170;4.884;2022-08-30T10:22:04;30.20;81.60
29203;DHT22;16245;51.170;4.884;2022-08-30T10:24:36;30.30;81.40
29203;DHT22;16245;51.170;4.884;2022-08-30T10:27:19;30.30;81.70
29203;DHT22;16245;51.170;4.884;2022-08-30T10:29:48;30.40;80.30
29203;DHT22;16245;51.170;4.884;2022-08-30T10:32:24;30.80;79.80
29203;DHT22;16245;51.170;4.884;2022-08-30T10:35:09;31.30;79.30
29203;DHT22;16245;51.170;4.884;2022-08-30T10:37:46;31.70;78.70
29203;DHT22;16245;51.170;4.884;2022-08-30T10:40:37;31.90;77.60
29203;DHT22;16245;51.170;4.884;2022-08-30T10:45:59;31.60;77.90
29203;DHT22;16245;51.170;4.884;2022-08-30T10:48:32;31.70;76.60
29203;DHT22;16245;51.170;4.884;2022-08-30T10:51:08;31.40;76.30
29203;DHT22;16245;51.170;4.884;2022-08-30T10:53:50;30.70;77.50
29203;DHT22;16245;51.170;4.884;2022-08-30T10:56:20;30.20;78.60
29203;DHT22;16245;51.170;4.884;2022-08-30T10:58:49;30.10;79.20
29203;DHT22;16245;51.170;4.884;2022-08-30T11:06:50;29.90;79.30
29203;DHT22;16245;51.170;4.884;2022-08-30T11:12:08;29.80;79.90
29203;DHT22;16245;51.170;4.884;2022-08-30T11:14:43;29.40;80.50
29203;DHT22;16245;51.170;4.884;2022-08-30T11:17:29;29.40;79.70
29203;DHT22;16245;51.170;4.884;2022-08-30T11:19:58;29.40;80.00
29203;DHT22;16245;51.170;4.884;2022-08-30T11:22:33;29.30;81.50
29203;DHT22;16245;51.170;4.884;2022-08-30T11:27:58;29.40;81.40
29203;DHT22;16245;51.170;4.884;2022-08-30T11:33:04;29.70;79.30
29203;DHT22;16245;51.170;4.884;2022-08-30T11:35:43;30.00;79.40
29203;DHT22;16245;51.170;4.884;2022-08-30T11:41:13;29.90;78.50
29203;DHT22;16245;51.170;4.884;2022-08-30T11:43:54;29.80;78.90
29203;DHT22;16245;51.170;4.884;2022-08-30T11:52:08;29.70;80.00
29203;DHT22;16245;51.170;4.884;2022-08-30T12:10:52;28.70;80.20
29203;DHT22;16245;51.170;4.884;2022-08-30T12:16:14;28.40;80.10
29203;DHT22;16245;51.170;4.884;2022-08-30T12:18:50;28.30;81.60
29203;DHT22;16245;51.170;4.884;2022-08-30T12:28:49;28.40;80.50
29203;DHT22;16245;51.170;4.884;2022-08-30T12:31:22;28.60;79.60
29203;DHT22;16245;51.170;4.884;2022-08-30T12:33:56;28.70;79.20
29203;DHT22;16245;51.170;4.884;2022-08-30T12:36:39;28.50;80.70
29203;DHT22;16245;51.170;4.884;2022-08-30T12:39:12;28.40;80.50
29203;DHT22;16245;51.170;4.884;2022-08-30T12:41:39;28.40;79.80
29203;DHT22;16245;51.170;4.884;2022-08-30T12:44:08;28.30;79.30
29203;DHT22;16245;51.170;4.884;2022-08-30T12:46:35;28.20;80.00
29203;DHT22;16245;51.170;4.884;2022-08-30T12:49:01;28.20;79.30
29203;DHT22;16245;51.170;4.884;2022-08-30T12:51:40;28.00;79.60
29203;DHT22;16245;51.170;4.884;2022-08-30T12:54:18;27.80;79.90
29203;DHT22;16245;51.170;4.884;2022-08-30T12:56:54;27.90;79.60
29203;DHT22;16245;51.170;4.884;2022-08-30T13:02:49;27.80;80.10
29203;DHT22;16245;51.170;4.884;2022-08-30T13:11:05;27.80;81.00
29203;DHT22;16245;51.170;4.884;2022-08-30T13:21:54;28.20;79.90
29203;DHT22;16245;51.170;4.884;2022-08-30T13:24:20;28.20;79.70
29203;DHT22;16245;51.170;4.884;2022-08-30T13:26:46;28.20;80.80
29203;DHT22;16245;51.170;4.884;2022-08-30T13:29:21;28.30;82.40
29203;DHT22;16245;51.170;4.884;2022-08-30T13:31:47;28.40;81.20
29203;DHT22;16245;51.170;4.884;2022-08-30T13:34:13;28.60;81.60
29203;DHT22;16245;51.170;4.884;2022-08-30T13:36:47;28.70;79.80
29203;DHT22;16245;51.170;4.884;2022-08-30T13:39:13;28.70;79.30
29203;DHT22;16245;51.170;4.884;2022-08-30T13:41:39;28.60;79.90
29203;DHT22;16245;51.170;4.884;2022-08-30T13:44:05;28.60;80.10
29203;DHT22;16245;51.170;4.884;2022-08-30T13:46:31;28.60;79.80
29203;DHT22;16245;51.170;4.884;2022-08-30T13:49:03;28.60;79.60
29203;DHT22;16245;51.170;4.884;2022-08-30T13:51:30;28.50;79.60
29203;DHT22;16245;51.170;4.884;2022-08-30T13:53:55;28.40;79.60
29203;DHT22;16245;51.170;4.884;2022-08-30T13:56:23;28.30;79.90
29203;DHT22;16245;51.170;4.884;2022-08-30T13:58:49;28.30;80.10
29203;DHT22;16245;51.170;4.884;2022-08-30T14:01:15;28.30;80.10
29203;DHT22;16245;51.170;4.884;2022-08-30T14:03:40;28.20;80.20
29203;DHT22;16245;51.170;4.884;2022-08-30T14:06:06;28.20;80.30
29203;DHT22;16245;51.170;4.884;2022-08-30T14:08:32;28.10;80.60
29203;DHT22;16245;51.170;4.884;2022-08-30T14:10:59;28.00;81.50
29203;DHT22;16245;51.170;4.884;2022-08-30T14:13:25;28.20;80.70
29203;DHT22;16245;51.170;4.884;2022-08-30T14:15:54;28.20;80.70
29203;DHT22;16245;51.170;4.884;2022-08-30T14:18:20;28.20;80.60
29203;DHT22;16245;51.170;4.884;2022-08-30T14:20:45;28.10;80.30
29203;DHT22;16245;51.170;4.884;2022-08-30T14:23:12;28.10;80.00
29203;DHT22;16245;51.170;4.884;2022-08-30T14:25:38;28.00;80.90
29203;DHT22;16245;51.170;4.884;2022-08-30T14:28:04;28.00;81.10
29203;DHT22;16245;51.170;4.884;2022-08-30T14:30:30;28.00;79.40
29203;DHT22;16245;51.170;4.884;2022-08-30T14:32:56;27.90;80.60
29203;DHT22;16245;51.170;4.884;2022-08-30T14:35:21;28.00;80.90
29203;DHT22;16245;51.170;4.884;2022-08-30T14:37:48;28.10;79.30
29203;DHT22;16245;51.170;4.884;2022-08-30T14:40:15;28.20;79.90
29203;DHT22;16245;51.170;4.884;2022-08-30T14:42:40;28.30;78.80
29203;DHT22;16245;51.170;4.884;2022-08-30T14:45:07;28.40;79.40
29203;DHT22;16245;51.170;4.884;2022-08-30T14:47:33;28.30;79.10
29203;DHT22;16245;51.170;4.884;2022-08-30T14:49:59;28.40;78.80
29203;DHT22;16245;51.170;4.884;2022-08-30T14:52:27;28.40;79.00
29203;DHT22;16245;51.170;4.884;2022-08-30T14:54:54;28.30;78.80
29203;DHT22;16245;51.170;4.884;2022-08-30T14:57:19;28.30;78.30
29203;DHT22;16245;51.170;4.884;2022-08-30T14:59:45;28.40;78.50
29203;DHT22;16245;51.170;4.884;2022-08-30T15:02:11;28.40;77.80
29203;DHT22;16245;51.170;4.884;2022-08-30T15:04:36;28.20;78.70
29203;DHT22;16245;51.170;4.884;2022-08-30T15:07:02;28.20;77.90
29203;DHT22;16245;51.170;4.884;2022-08-30T15:09:28;28.10;77.70
29203;DHT22;16245;51.170;4.884;2022-08-30T15:11:56;28.00;77.90
29203;DHT22;16245;51.170;4.884;2022-08-30T15:14:22;27.80;78.80
29203;DHT22;16245;51.170;4.884;2022-08-30T15:16:48;27.70;79.40
29203;DHT22;16245;51.170;4.884;2022-08-30T15:19:15;27.60;79.00
29203;DHT22;16245;51.170;4.884;2022-08-30T15:21:45;27.60;79.90
29203;DHT22;16245;51.170;4.884;2022-08-30T15:24:18;27.60;79.60
29203;DHT22;16245;51.170;4.884;2022-08-30T15:26:44;27.60;78.80
29203;DHT22;16245;51.170;4.884;2022-08-30T15:29:13;27.50;79.20
29203;DHT22;16245;51.170;4.884;2022-08-30T15:31:39;27.50;78.30
29203;DHT22;16245;51.170;4.884;2022-08-30T15:34:07;27.50;78.40
29203;DHT22;16245;51.170;4.884;2022-08-30T15:36:33;27.40;79.30
29203;DHT22;16245;51.170;4.884;2022-08-30T15:38:59;27.40;79.00
29203;DHT22;16245;51.170;4.884;2022-08-30T15:41:25;27.40;78.90
29203;DHT22;16245;51.170;4.884;2022-08-30T15:43:52;27.40;78.20
29203;DHT22;16245;51.170;4.884;2022-08-30T15:46:25;27.40;78.90
29203;DHT22;16245;51.170;4.884;2022-08-30T15:48:53;27.40;78.70
29203;DHT22;16245;51.170;4.884;2022-08-30T15:51:23;27.40;78.30
29203;DHT22;16245;51.170;4.884;2022-08-30T15:53:50;27.20;78.60
29203;DHT22;16245;51.170;4.884;2022-08-30T15:56:17;27.10;79.50
29203;DHT22;16245;51.170;4.884;2022-08-30T15:58:44;27.00;79.00
29203;DHT22;16245;51.170;4.884;2022-08-30T16:01:11;27.00;78.30
29203;DHT22;16245;51.170;4.884;2022-08-30T16:03:38;27.00;79.10
29203;DHT22;16245;51.170;4.884;2022-08-30T16:06:14;26.80;79.70
29203;DHT22;16245;51.170;4.884;2022-08-30T16:08:40;26.80;79.20
29203;DHT22;16245;51.170;4.884;2022-08-30T16:11:11;26.70;78.30
29203;DHT22;16245;51.170;4.884;2022-08-30T16:13:36;26.60;78.50
29203;DHT22;16245;51.170;4.884;2022-08-30T16:16:05;26.60;78.90
29203;DHT22;16245;51.170;4.884;2022-08-30T16:18:31;26.50;78.80
29203;DHT22;16245;51.170;4.884;2022-08-30T16:21:07;26.50;79.10
29203;DHT22;16245;51.170;4.884;2022-08-30T16:23:34;26.50;79.40
29203;DHT22;16245;51.170;4.884;2022-08-30T16:25:59;26.50;78.90
29203;DHT22;16245;51.170;4.884;2022-08-30T16:28:25;26.40;79.30
29203;DHT22;16245;51.170;4.884;2022-08-30T16:30:52;26.30;78.90
29203;DHT22;16245;51.170;4.884;2022-08-30T16:33:17;26.30;79.60
29203;DHT22;16245;51.170;4.884;2022-08-30T16:35:43;26.20;80.10
29203;DHT22;16245;51.170;4.884;2022-08-30T16:38:09;26.20;81.00
29203;DHT22;16245;51.170;4.884;2022-08-30T16:40:34;26.20;80.70
29203;DHT22;16245;51.170;4.884;2022-08-30T16:43:02;26.30;80.40
29203;DHT22;16245;51.170;4.884;2022-08-30T16:45:27;26.30;79.00
29203;DHT22;16245;51.170;4.884;2022-08-30T16:47:53;26.20;79.40
29203;DHT22;16245;51.170;4.884;2022-08-30T16:50:19;26.20;79.20
29203;DHT22;16245;51.170;4.884;2022-08-30T16:52:48;26.10;79.60
29203;DHT22;16245;51.170;4.884;2022-08-30T16:55:14;26.10;79.50
29203;DHT22;16245;51.170;4.884;2022-08-30T16:57:40;26.20;78.80
29203;DHT22;16245;51.170;4.884;2022-08-30T17:00:06;26.10;78.40
29203;DHT22;16245;51.170;4.884;2022-08-30T17:02:33;26.00;78.90
29203;DHT22;16245;51.170;4.884;2022-08-30T17:04:59;25.90;79.20
29203;DHT22;16245;51.170;4.884;2022-08-30T17:07:25;25.80;79.30
29203;DHT22;16245;51.170;4.884;2022-08-30T17:09:50;25.70;80.10
29203;DHT22;16245;51.170;4.884;2022-08-30T17:12:16;25.60;80.80
29203;DHT22;16245;51.170;4.884;2022-08-30T17:14:42;25.50;81.00